createdAt,value
2019-01-19T00:00:59.342Z,-4.59
2019-01-19T00:04:15.683Z,-4.70
2019-01-19T00:07:37.123Z,-4.72
2019-01-19T00:10:42.005Z,-4.72
2019-01-19T00:13:35.465Z,-4.23
2019-01-19T00:16:18.659Z,-4.99
2019-01-19T00:19:32.675Z,-4.53
2019-01-19T00:22:24.966Z,-4.52
2019-01-19T00:25:22.362Z,-5.56
2019-01-19T00:28:18.009Z,-5.15
2019-01-19T00:31:16.378Z,-5.15
2019-01-19T00:34:08.433Z,-4.68
2019-01-19T00:37:16.092Z,-5.44
2019-01-19T00:40:34.111Z,-4.92
2019-01-19T00:43:23.385Z,-5.32
2019-01-19T00:46:21.512Z,-4.91
2019-01-19T00:49:08.405Z,-5.22
2019-01-19T00:52:03.997Z,-4.77
2019-01-19T00:54:58.251Z,-4.56
2019-01-19T00:58:34.514Z,-5.25
2019-01-19T01:01:43.803Z,-5.25
2019-01-19T01:04:38.247Z,-5.58
2019-01-19T01:07:43.120Z,-5.58
2019-01-19T01:10:38.187Z,-5.04
2019-01-19T01:13:41.939Z,-4.94
2019-01-19T01:16:25.134Z,-5.34
2019-01-19T01:19:19.738Z,-5.22
2019-01-19T01:22:40.670Z,-5.22
2019-01-19T01:25:49.655Z,-4.59
2019-01-19T01:28:52.430Z,-4.67
2019-01-19T01:31:41.743Z,-4.67
2019-01-19T01:34:40.208Z,-5.00
2019-01-19T01:37:42.630Z,-5.20
2019-01-19T01:40:46.151Z,-5.09
2019-01-19T01:43:19.123Z,-5.37
2019-01-19T01:46:52.563Z,-5.49
2019-01-19T01:49:37.543Z,-5.39
2019-01-19T01:52:49.611Z,-6.03
2019-01-19T01:55:44.135Z,-6.34
2019-01-19T01:58:36.289Z,-5.26
2019-01-19T02:01:13.367Z,-5.21
2019-01-19T02:04:18.119Z,-5.25
2019-01-19T02:07:23.551Z,-5.25
2019-01-19T02:10:18.956Z,-5.71
2019-01-19T02:13:17.247Z,-5.24
2019-01-19T02:16:32.648Z,-5.44
2019-01-19T02:19:47.999Z,-5.43
2019-01-19T02:22:39.163Z,-5.18
2019-01-19T02:25:51.111Z,-5.60
2019-01-19T02:28:28.205Z,-5.70
2019-01-19T02:31:46.516Z,-5.38
2019-01-19T02:34:30.231Z,-5.66
2019-01-19T02:37:31.087Z,-5.53
2019-01-19T02:40:31.511Z,-5.67
2019-01-19T02:43:24.586Z,-6.24
2019-01-19T02:46:49.011Z,-5.72
2019-01-19T02:49:42.470Z,-5.21
2019-01-19T02:52:33.247Z,-5.67
2019-01-19T02:55:43.312Z,-5.67
2019-01-19T02:58:40.283Z,-5.38
2019-01-19T03:02:09.177Z,-5.31
2019-01-19T03:05:08.184Z,-5.43
2019-01-19T03:07:51.813Z,-5.68
2019-01-19T03:10:59.010Z,-6.23
2019-01-19T03:13:58.457Z,-5.95
2019-01-19T03:17:06.114Z,-5.95
2019-01-19T03:20:02.536Z,-6.44
2019-01-19T03:23:07.726Z,-6.01
2019-01-19T03:26:02.241Z,-5.44
2019-01-19T03:28:53.868Z,-5.32
2019-01-19T03:32:15.147Z,-5.43
2019-01-19T03:35:18.182Z,-5.58
2019-01-19T03:38:30.109Z,-6.11
2019-01-19T03:41:22.042Z,-5.74
2019-01-19T03:44:26.956Z,-5.19
2019-01-19T03:47:25.959Z,-5.26
2019-01-19T03:50:30.073Z,-5.48
2019-01-19T03:53:07.174Z,-5.77
2019-01-19T03:56:18.349Z,-5.83
2019-01-19T03:59:11.579Z,-6.42
2019-01-19T04:02:35.872Z,-5.70
2019-01-19T04:05:50.723Z,-6.10
2019-01-19T04:08:59.747Z,-5.68
2019-01-19T04:12:07.673Z,-6.86
2019-01-19T04:15:20.247Z,-5.77
2019-01-19T04:18:05.314Z,-6.22
2019-01-19T04:21:11.292Z,-6.28
2019-01-19T04:23:41.591Z,-5.56
2019-01-19T04:26:29.473Z,-6.58
2019-01-19T04:28:57.656Z,-5.74
2019-01-19T04:31:25.047Z,-6.05
2019-01-19T04:33:52.693Z,-6.00
2019-01-19T04:36:21.735Z,-6.13
2019-01-19T04:38:49.738Z,-6.26
2019-01-19T04:41:17.152Z,-6.26
2019-01-19T04:43:44.571Z,-5.75
2019-01-19T04:46:12.127Z,-6.54
2019-01-19T04:48:40.376Z,-6.29
2019-01-19T04:51:07.806Z,-6.54
2019-01-19T04:53:35.321Z,-5.93
2019-01-19T04:56:02.768Z,-6.38
2019-01-19T04:58:30.259Z,-6.18
2019-01-19T05:00:57.690Z,-6.25
2019-01-19T05:03:25.167Z,-5.99
2019-01-19T05:05:52.686Z,-6.15
2019-01-19T05:08:20.080Z,-6.11
2019-01-19T05:10:47.529Z,-6.25
2019-01-19T05:13:14.944Z,-6.27
2019-01-19T05:15:42.371Z,-6.16
2019-01-19T05:18:09.964Z,-6.27
2019-01-19T05:20:37.435Z,-6.33
2019-01-19T05:23:04.846Z,-6.15
2019-01-19T05:25:32.297Z,-6.25
2019-01-19T05:27:59.767Z,-6.35
2019-01-19T05:30:27.192Z,-6.27
2019-01-19T05:32:54.606Z,-5.99
2019-01-19T05:35:22.183Z,-6.49
2019-01-19T05:37:49.597Z,-5.95
2019-01-19T05:40:17.015Z,-5.93
2019-01-19T05:42:44.529Z,-6.30
2019-01-19T05:45:13.548Z,-5.95
2019-01-19T05:47:41.027Z,-6.43
2019-01-19T05:50:12.060Z,-6.36
2019-01-19T05:52:39.472Z,-6.06
2019-01-19T05:55:07.086Z,-6.35
2019-01-19T05:57:34.513Z,-6.86
2019-01-19T06:00:02.091Z,-6.58
2019-01-19T06:02:29.792Z,-6.29
2019-01-19T06:04:57.239Z,-6.38
2019-01-19T06:07:24.723Z,-6.38
2019-01-19T06:09:52.225Z,-6.54
2019-01-19T06:12:19.737Z,-6.16
2019-01-19T06:14:47.254Z,-6.37
2019-01-19T06:17:14.658Z,-7.11
2019-01-19T06:19:42.371Z,-6.22
2019-01-19T06:22:10.285Z,-6.09
2019-01-19T06:24:37.663Z,-5.91
2019-01-19T06:27:05.111Z,-6.74
2019-01-19T06:29:32.922Z,-6.67
2019-01-19T06:32:00.314Z,-6.28
2019-01-19T06:34:27.719Z,-6.16
2019-01-19T06:36:55.421Z,-6.40
2019-01-19T06:39:23.045Z,-6.38
2019-01-19T06:41:50.464Z,-6.38
2019-01-19T06:44:18.087Z,-6.61
2019-01-19T06:46:45.549Z,-6.77
2019-01-19T06:49:12.992Z,-6.46
2019-01-19T06:51:40.479Z,-6.17
2019-01-19T06:54:08.222Z,-5.93
2019-01-19T06:56:35.724Z,-6.69
2019-01-19T06:59:03.238Z,-6.19
2019-01-19T07:01:30.678Z,-6.59
2019-01-19T07:03:58.116Z,-6.31
2019-01-19T07:06:25.735Z,-6.32
2019-01-19T07:08:53.098Z,-5.91
2019-01-19T07:11:20.592Z,-6.60
2019-01-19T07:13:48.060Z,-6.56
2019-01-19T07:16:15.514Z,-7.21
2019-01-19T07:18:43.060Z,-6.68
2019-01-19T07:21:10.519Z,-6.01
2019-01-19T07:23:37.907Z,-5.98
2019-01-19T07:26:05.780Z,-6.73
2019-01-19T07:28:33.260Z,-5.87
2019-01-19T07:31:00.734Z,-6.07
2019-01-19T07:33:28.204Z,-5.99
2019-01-19T07:35:55.620Z,-5.67
2019-01-19T07:38:23.099Z,-5.62
2019-01-19T07:40:50.665Z,-6.15
2019-01-19T07:43:18.676Z,-5.70
2019-01-19T07:45:46.066Z,-6.28
2019-01-19T07:48:13.730Z,-6.15
2019-01-19T07:50:41.115Z,-6.27
2019-01-19T07:53:08.592Z,-5.98
2019-01-19T07:55:36.029Z,-6.05
2019-01-19T07:58:03.471Z,-6.88
2019-01-19T08:00:32.252Z,-6.27
2019-01-19T08:02:59.652Z,-6.12
2019-01-19T08:05:27.209Z,-6.12
2019-01-19T08:07:54.748Z,-5.93
2019-01-19T08:10:22.256Z,-6.16
2019-01-19T08:12:49.672Z,-6.02
2019-01-19T08:15:19.536Z,-6.16
2019-01-19T08:17:46.975Z,-5.93
2019-01-19T08:20:14.947Z,-5.95
2019-01-19T08:22:42.340Z,-5.80
2019-01-19T08:25:10.086Z,-5.69
2019-01-19T08:27:40.093Z,-6.33
2019-01-19T08:30:11.913Z,-5.53
2019-01-19T08:32:39.347Z,-6.08
2019-01-19T08:35:07.464Z,-5.75
2019-01-19T08:37:34.891Z,-5.65
2019-01-19T08:40:02.318Z,-5.31
2019-01-19T08:42:30.227Z,-5.63
2019-01-19T08:44:57.879Z,-5.68
2019-01-19T08:47:28.323Z,-5.44
2019-01-19T08:49:55.791Z,-5.77
2019-01-19T08:52:23.207Z,-5.14
2019-01-19T08:54:50.690Z,-5.54
2019-01-19T08:57:18.125Z,-6.16
2019-01-19T08:59:45.549Z,-5.73
2019-01-19T09:02:12.958Z,-5.44
2019-01-19T09:04:40.400Z,-5.22
2019-01-19T09:07:07.979Z,-6.10
2019-01-19T09:09:35.427Z,-5.63
2019-01-19T09:12:02.948Z,-5.40
2019-01-19T09:14:30.426Z,-4.99
2019-01-19T09:16:58.254Z,-5.57
2019-01-19T09:19:25.770Z,-5.92
2019-01-19T09:21:53.202Z,-5.21
2019-01-19T09:24:23.958Z,-5.44
2019-01-19T09:26:51.416Z,-5.15
2019-01-19T09:29:18.831Z,-5.70
2019-01-19T09:31:46.348Z,-5.48
2019-01-19T09:34:13.810Z,-5.04
2019-01-19T09:36:41.249Z,-5.18
2019-01-19T09:39:19.253Z,-5.37
2019-01-19T09:41:46.700Z,-5.58
2019-01-19T09:44:14.239Z,-5.18
2019-01-19T09:46:41.949Z,-5.18
2019-01-19T09:49:09.494Z,-4.77
2019-01-19T09:51:36.923Z,-5.12
2019-01-19T09:54:04.724Z,-5.56
2019-01-19T09:56:32.171Z,-5.56
2019-01-19T09:58:59.619Z,-5.13
2019-01-19T10:01:27.114Z,-5.26
2019-01-19T10:03:54.564Z,-5.56
2019-01-19T10:06:22.065Z,-4.34
2019-01-19T10:08:49.565Z,-4.58
2019-01-19T10:11:18.016Z,-4.45
2019-01-19T10:13:45.888Z,-5.12
2019-01-19T10:16:13.464Z,-5.12
2019-01-19T10:18:40.928Z,-4.33
2019-01-19T10:21:08.374Z,-4.47
2019-01-19T10:23:35.871Z,-4.47
2019-01-19T10:26:03.634Z,-3.94
2019-01-19T10:28:31.067Z,-3.94
2019-01-19T10:30:58.532Z,-4.27
2019-01-19T10:33:25.968Z,-4.45
2019-01-19T10:35:53.379Z,-4.59
2019-01-19T10:38:20.922Z,-4.36
2019-01-19T10:40:48.392Z,-3.89
2019-01-19T10:43:15.885Z,-3.80
2019-01-19T10:45:43.404Z,-3.80
2019-01-19T10:48:10.986Z,-3.67
2019-01-19T10:50:38.595Z,-4.35
2019-01-19T10:53:06.183Z,-3.63
2019-01-19T10:55:33.706Z,-3.89
2019-01-19T10:58:01.143Z,-3.36
2019-01-19T11:00:29.858Z,-3.54
2019-01-19T11:03:01.000Z,-3.34
2019-01-19T11:05:29.266Z,-4.10
2019-01-19T11:08:03.567Z,-4.14
2019-01-19T11:10:31.156Z,-3.69
2019-01-19T11:12:58.703Z,-3.36
2019-01-19T11:15:26.188Z,-3.67
2019-01-19T11:17:53.606Z,-3.67
2019-01-19T11:20:25.795Z,-3.57
2019-01-19T11:22:55.960Z,-3.57
2019-01-19T11:25:23.825Z,-3.52
2019-01-19T11:27:51.393Z,-3.32
2019-01-19T11:30:24.108Z,-3.55
2019-01-19T11:32:51.670Z,-3.83
2019-01-19T11:35:19.287Z,-4.07
2019-01-19T11:37:46.812Z,-3.84
2019-01-19T11:40:19.432Z,-3.63
2019-01-19T11:42:47.785Z,-4.06
2019-01-19T11:45:17.487Z,-3.75
2019-01-19T11:47:45.045Z,-3.54
2019-01-19T11:50:13.437Z,-3.68
2019-01-19T11:52:40.852Z,-3.68
2019-01-19T11:55:11.192Z,-3.97
2019-01-19T11:57:38.650Z,-3.93
2019-01-19T12:00:13.518Z,-4.04
2019-01-19T12:02:40.988Z,-4.04
2019-01-19T12:05:08.511Z,-3.40
2019-01-19T12:07:36.113Z,-3.23
2019-01-19T12:10:05.692Z,-3.74
2019-01-19T12:12:33.111Z,-3.94
2019-01-19T12:15:00.530Z,-3.49
2019-01-19T12:17:27.976Z,-3.44
2019-01-19T12:19:55.489Z,-3.41
2019-01-19T12:22:22.921Z,-3.13
2019-01-19T12:24:50.369Z,-3.14
2019-01-19T12:27:17.872Z,-3.58
2019-01-19T12:29:45.309Z,-3.25
2019-01-19T12:32:12.770Z,-3.25
2019-01-19T12:34:40.244Z,-3.84
2019-01-19T12:37:07.652Z,-3.47
2019-01-19T12:39:35.128Z,-3.94
2019-01-19T12:42:02.662Z,-3.38
2019-01-19T12:44:30.119Z,-3.80
2019-01-19T12:46:57.611Z,-3.20
2019-01-19T12:49:25.123Z,-3.07
2019-01-19T12:51:52.554Z,-3.07
2019-01-19T12:54:19.980Z,-3.46
2019-01-19T12:56:47.475Z,-3.40
2019-01-19T12:59:14.872Z,-3.33
2019-01-19T13:01:42.372Z,-3.33
2019-01-19T13:04:09.986Z,-3.20
2019-01-19T13:06:59.625Z,-3.57
2019-01-19T13:09:30.116Z,-3.57
2019-01-19T13:12:28.389Z,-3.37
2019-01-19T13:15:19.305Z,-3.27
2019-01-19T13:18:10.856Z,-3.49
2019-01-19T13:21:13.084Z,-3.60
2019-01-19T13:24:40.454Z,-3.50
2019-01-19T13:27:33.563Z,-3.55
2019-01-19T13:30:46.425Z,-3.49
2019-01-19T13:33:33.924Z,-3.44
2019-01-19T13:36:38.139Z,-3.25
2019-01-19T13:39:37.515Z,-3.60
2019-01-19T13:42:55.784Z,-3.74
2019-01-19T13:45:48.399Z,-3.22
2019-01-19T13:48:50.663Z,-3.50
2019-01-19T13:51:33.102Z,-2.94
2019-01-19T13:55:03.457Z,-3.17
2019-01-19T13:57:50.751Z,-3.17
2019-01-19T14:00:54.794Z,-3.40
2019-01-19T14:04:09.745Z,-3.30
2019-01-19T14:07:27.893Z,-3.48
2019-01-19T14:10:17.662Z,-3.21
2019-01-19T14:13:29.866Z,-2.88
2019-01-19T14:16:21.121Z,-2.94
2019-01-19T14:19:29.463Z,-3.32
2019-01-19T14:22:33.565Z,-3.03
2019-01-19T14:25:23.853Z,-3.03
2019-01-19T14:28:21.874Z,-2.87
2019-01-19T14:31:17.383Z,-3.04
2019-01-19T14:34:26.752Z,-3.04
2019-01-19T14:37:38.806Z,-3.29
2019-01-19T14:40:31.294Z,-3.29
2019-01-19T14:43:51.522Z,-3.10
2019-01-19T14:47:07.055Z,-3.12
2019-01-19T14:50:18.315Z,-3.31
2019-01-19T14:53:33.506Z,-3.06
2019-01-19T14:56:51.666Z,-3.06
2019-01-19T14:59:37.284Z,-3.19
2019-01-19T15:02:48.531Z,-3.34
2019-01-19T15:05:54.139Z,-3.28
2019-01-19T15:08:38.936Z,-3.29
2019-01-19T15:12:06.325Z,-3.33
2019-01-19T15:15:27.906Z,-3.63
2019-01-19T15:18:42.952Z,-3.44
2019-01-19T15:22:05.132Z,-3.94
2019-01-19T15:24:55.183Z,-3.96
2019-01-19T15:27:59.717Z,-3.67
2019-01-19T15:31:27.051Z,-3.85
2019-01-19T15:34:54.097Z,-4.25
2019-01-19T15:38:02.058Z,-4.46
2019-01-19T15:41:05.289Z,-4.46
2019-01-19T15:43:52.826Z,-4.14
2019-01-19T15:46:56.880Z,-4.39
2019-01-19T15:50:09.293Z,-4.03
2019-01-19T15:52:48.166Z,-4.03
2019-01-19T15:55:54.492Z,-4.12
2019-01-19T15:58:34.085Z,-4.05
2019-01-19T16:01:44.413Z,-4.22
2019-01-19T16:05:01.609Z,-4.40
2019-01-19T16:08:10.826Z,-4.40
2019-01-19T16:11:28.719Z,-4.48
2019-01-19T16:14:46.889Z,-4.48
2019-01-19T16:17:35.037Z,-4.72
2019-01-19T16:20:36.520Z,-4.47
2019-01-19T16:23:44.369Z,-4.95
2019-01-19T16:26:56.758Z,-4.95
2019-01-19T16:29:55.831Z,-4.66
2019-01-19T16:33:00.011Z,-4.85
2019-01-19T16:36:05.219Z,-4.69
2019-01-19T16:38:56.075Z,-4.73
2019-01-19T16:41:57.038Z,-4.62
2019-01-19T16:45:14.369Z,-4.81
2019-01-19T16:48:18.981Z,-4.64
2019-01-19T16:51:32.468Z,-4.76
2019-01-19T16:54:18.720Z,-4.81
2019-01-19T16:57:31.671Z,-4.75
2019-01-19T17:00:32.481Z,-4.75
2019-01-19T17:03:48.012Z,-4.58
2019-01-19T17:06:42.519Z,-4.62
2019-01-19T17:09:47.720Z,-4.76
2019-01-19T17:12:39.585Z,-4.57
2019-01-19T17:15:43.704Z,-4.57
2019-01-19T17:18:33.791Z,-4.70
2019-01-19T17:21:39.016Z,-4.58
2019-01-19T17:24:36.026Z,-4.73
2019-01-19T17:27:25.925Z,-4.71
2019-01-19T17:30:27.913Z,-4.84
2019-01-19T17:33:33.912Z,-4.68
2019-01-19T17:36:31.233Z,-4.81
2019-01-19T17:39:45.587Z,-4.67
2019-01-19T17:42:50.555Z,-4.67
2019-01-19T17:46:17.251Z,-4.83
2019-01-19T17:49:29.132Z,-4.83
2019-01-19T17:52:37.115Z,-4.88
2019-01-19T17:55:34.668Z,-4.90
2019-01-19T17:58:51.103Z,-4.74
2019-01-19T18:02:00.011Z,-4.85
2019-01-19T18:05:15.131Z,-4.87
2019-01-19T18:08:10.210Z,-4.94
2019-01-19T18:10:57.454Z,-4.94
2019-01-19T18:14:03.072Z,-4.87
2019-01-19T18:17:24.574Z,-4.88
2019-01-19T18:20:32.424Z,-4.92
2019-01-19T18:23:56.672Z,-4.89
2019-01-19T18:27:10.459Z,-4.95
2019-01-19T18:30:16.093Z,-5.00
2019-01-19T18:33:29.801Z,-5.01
2019-01-19T18:36:54.616Z,-5.01
2019-01-19T18:39:39.477Z,-5.34
2019-01-19T18:42:36.249Z,-5.16
2019-01-19T18:45:59.613Z,-5.03
2019-01-19T18:49:04.139Z,-4.93
2019-01-19T18:51:58.599Z,-5.00
2019-01-19T18:55:00.675Z,-5.00
2019-01-19T18:58:15.515Z,-4.96
2019-01-19T19:01:32.804Z,-5.26
2019-01-19T19:04:45.099Z,-5.15
2019-01-19T19:07:34.194Z,-5.31
2019-01-19T19:10:24.232Z,-5.03
2019-01-19T19:13:40.262Z,-5.16
2019-01-19T19:16:57.442Z,-5.10
2019-01-19T19:19:43.465Z,-5.37
2019-01-19T19:23:23.306Z,-5.28
2019-01-19T19:26:10.331Z,-5.22
2019-01-19T19:29:14.432Z,-5.05
2019-01-19T19:31:53.230Z,-5.29
2019-01-19T19:35:11.690Z,-5.28
2019-01-19T19:38:10.807Z,-5.11
2019-01-19T19:41:04.248Z,-5.31
2019-01-19T19:44:11.978Z,-5.12
2019-01-19T19:47:23.455Z,-5.25
2019-01-19T19:50:14.960Z,-5.27
2019-01-19T19:52:43.004Z,-5.48
2019-01-19T19:55:09.323Z,-5.65
2019-01-19T19:57:37.246Z,-5.30
2019-01-19T20:00:07.619Z,-5.26
2019-01-19T20:02:35.535Z,-5.27
2019-01-19T20:05:04.502Z,-5.22
2019-01-19T20:07:34.751Z,-5.30
2019-01-19T20:10:02.647Z,-5.45
2019-01-19T20:12:30.740Z,-5.37
2019-01-19T20:14:58.616Z,-5.51
2019-01-19T20:17:26.583Z,-5.54
2019-01-19T20:19:54.576Z,-5.45
2019-01-19T20:22:22.435Z,-5.35
2019-01-19T20:24:50.367Z,-6.23
2019-01-19T20:27:18.175Z,-6.18
2019-01-19T20:29:46.292Z,-6.18
2019-01-19T20:32:14.249Z,-5.88
2019-01-19T20:34:42.186Z,-6.68
2019-01-19T20:37:10.201Z,-6.07
2019-01-19T20:39:38.286Z,-6.30
2019-01-19T20:42:06.278Z,-6.40
2019-01-19T20:44:34.242Z,-6.43
2019-01-19T20:47:02.134Z,-6.00
2019-01-19T20:49:30.106Z,-6.18
2019-01-19T20:51:58.016Z,-6.72
2019-01-19T20:54:25.732Z,-6.33
2019-01-19T20:56:53.589Z,-6.42
2019-01-19T20:59:21.308Z,-6.42
2019-01-19T21:01:49.177Z,-5.91
2019-01-19T21:04:18.600Z,-5.91
2019-01-19T21:06:46.571Z,-6.05
2019-01-19T21:09:14.389Z,-6.05
2019-01-19T21:11:42.328Z,-6.03
2019-01-19T21:14:10.164Z,-6.57
2019-01-19T21:16:37.945Z,-6.17
2019-01-19T21:19:05.804Z,-6.20
2019-01-19T21:21:33.390Z,-6.00
2019-01-19T21:24:01.046Z,-6.35
2019-01-19T21:26:29.038Z,-6.28
2019-01-19T21:28:56.746Z,-6.13
2019-01-19T21:31:24.349Z,-6.89
2019-01-19T21:33:52.307Z,-6.58
2019-01-19T21:36:19.969Z,-6.20
2019-01-19T21:38:47.604Z,-7.03
2019-01-19T21:41:15.077Z,-6.33
2019-01-19T21:43:43.283Z,-6.23
2019-01-19T21:46:10.967Z,-6.06
2019-01-19T21:48:38.385Z,-6.71
2019-01-19T21:51:05.903Z,-7.16
2019-01-19T21:53:33.316Z,-6.27
2019-01-19T21:56:00.793Z,-6.52
2019-01-19T21:58:28.396Z,-6.86
2019-01-19T22:00:56.032Z,-6.40
2019-01-19T22:03:23.445Z,-6.64
2019-01-19T22:05:50.872Z,-6.07
2019-01-19T22:08:18.364Z,-6.42
2019-01-19T22:10:46.475Z,-6.68
2019-01-19T22:13:14.071Z,-6.70
2019-01-19T22:15:41.563Z,-6.57
2019-01-19T22:18:09.026Z,-6.47
2019-01-19T22:20:36.523Z,-6.28
2019-01-19T22:23:03.972Z,-6.51
2019-01-19T22:25:31.422Z,-6.49
2019-01-19T22:27:58.919Z,-6.66
2019-01-19T22:30:26.456Z,-6.61
2019-01-19T22:32:55.468Z,-6.62
2019-01-19T22:35:25.957Z,-6.58
2019-01-19T22:37:53.397Z,-6.68
2019-01-19T22:40:20.947Z,-7.20
2019-01-19T22:42:48.509Z,-7.01
2019-01-19T22:45:15.999Z,-6.74
2019-01-19T22:47:43.533Z,-6.56
2019-01-19T22:50:13.252Z,-6.77
2019-01-19T22:52:40.686Z,-6.54
2019-01-19T22:55:08.378Z,-6.66
2019-01-19T22:57:35.896Z,-6.90
2019-01-19T23:00:28.579Z,-7.28
2019-01-19T23:02:56.080Z,-6.82
2019-01-19T23:05:23.627Z,-6.86
2019-01-19T23:07:52.124Z,-6.79
2019-01-19T23:10:19.583Z,-6.87
2019-01-19T23:12:47.344Z,-6.67
2019-01-19T23:15:14.986Z,-7.22
2019-01-19T23:17:42.469Z,-6.95
2019-01-19T23:20:09.973Z,-6.67
2019-01-19T23:22:37.634Z,-6.55
2019-01-19T23:25:06.544Z,-6.98
2019-01-19T23:27:33.975Z,-7.15
2019-01-19T23:30:01.492Z,-6.82
2019-01-19T23:32:28.972Z,-6.60
2019-01-19T23:34:56.472Z,-6.74
2019-01-19T23:37:23.908Z,-7.09
2019-01-19T23:39:51.368Z,-7.17
2019-01-19T23:42:18.792Z,-6.91
2019-01-19T23:44:46.200Z,-6.65
2019-01-19T23:47:13.651Z,-6.59
2019-01-19T23:49:42.350Z,-6.89
2019-01-19T23:52:09.731Z,-6.87
2019-01-19T23:54:37.212Z,-6.75
2019-01-19T23:57:04.805Z,-6.85
2019-01-19T23:59:32.226Z,-7.29
